Time;durP1;ratioP1;P1;durP2;ratioP2;P2;SDS_P1;SDS_P2;PMS_P1;PMS_P2;Temp;Humidity;BMP_temperature;BMP_pressure;BME280_temperature;BME280_humidity;BME280_pressure;Samples;Min_cycle;Max_cycle;Signal;HPM_P1;HPM_P2
2022/11/22 00:00:07;;;;;;;3.50;3.50;;;21.40;57.60;;;;;;5014585;28;20472;-61
2022/11/22 00:02:34;;;;;;;4.10;3.90;;;21.40;57.10;;;;;;5014628;28;20438;-62
2022/11/22 00:05:03;;;;;;;3.50;3.50;;;21.40;57.20;;;;;;5014523;28;20524;-58
2022/11/22 00:07:30;;;;;;;4.17;4.07;;;21.40;57.30;;;;;;5014792;28;20858;-59
2022/11/22 00:09:57;;;;;;;3.57;3.57;;;21.40;57.30;;;;;;5014402;28;20448;-62
2022/11/22 00:12:24;;;;;;;3.90;3.80;;;21.40;57.30;;;;;;5014287;28;20577;-59
2022/11/22 00:14:51;;;;;;;3.77;3.77;;;21.40;57.30;;;;;;5014572;28;20873;-61
2022/11/22 00:17:17;;;;;;;3.83;3.63;;;21.40;57.30;;;;;;5014400;28;20493;-60
2022/11/22 00:19:44;;;;;;;4.03;3.87;;;21.40;57.30;;;;;;5014266;28;20470;-56
2022/11/22 00:22:12;;;;;;;3.80;3.70;;;21.40;57.30;;;;;;5014190;28;20964;-60
2022/11/22 00:24:39;;;;;;;4.10;4.00;;;21.40;57.30;;;;;;5014363;28;20442;-59
2022/11/22 00:27:06;;;;;;;4.50;4.40;;;21.40;57.30;;;;;;5013500;28;20470;-61
2022/11/22 00:29:33;;;;;;;4.00;3.90;;;21.40;57.30;;;;;;5013910;28;20473;-61
2022/11/22 00:31:59;;;;;;;4.40;4.23;;;21.40;57.30;;;;;;5013994;28;20481;-62
2022/11/22 00:34:26;;;;;;;4.37;4.10;;;21.40;57.30;;;;;;5014195;28;20452;-60
2022/11/22 00:36:53;;;;;;;3.90;3.80;;;21.30;57.20;;;;;;5014159;28;20488;-62
2022/11/22 00:39:21;;;;;;;4.20;4.10;;;21.30;57.30;;;;;;5013958;28;20454;-61
2022/11/22 00:41:48;;;;;;;4.00;3.80;;;21.30;57.30;;;;;;5013935;28;20524;-62
2022/11/22 00:44:15;;;;;;;3.80;3.70;;;21.30;57.30;;;;;;5014089;28;20492;-60
2022/11/22 00:46:42;;;;;;;4.03;3.93;;;21.30;57.30;;;;;;5013887;28;20466;-62
2022/11/22 00:49:08;;;;;;;4.13;3.97;;;21.30;57.30;;;;;;5013954;28;20448;-61
2022/11/22 00:51:35;;;;;;;3.90;3.80;;;21.30;57.40;;;;;;5013721;28;20449;-61
2022/11/22 00:54:02;;;;;;;4.30;4.20;;;21.30;57.40;;;;;;5013777;28;20933;-62
2022/11/22 00:56:30;;;;;;;4.27;4.17;;;21.30;57.40;;;;;;5013783;28;20466;-62
2022/11/22 00:58:58;;;;;;;3.70;3.60;;;21.30;57.50;;;;;;5014133;28;20482;-62
2022/11/22 01:01:25;;;;;;;3.93;3.77;;;21.30;57.50;;;;;;5014250;28;20532;-62
2022/11/22 01:03:52;;;;;;;3.87;3.77;;;21.30;57.50;;;;;;5014294;28;20452;-62
2022/11/22 01:06:19;;;;;;;4.50;4.40;;;21.30;57.50;;;;;;5016003;28;20480;-62
2022/11/22 01:08:45;;;;;;;4.33;4.23;;;21.30;57.60;;;;;;5018198;28;20492;-64
2022/11/22 01:11:15;;;;;;;4.10;4.00;;;21.20;57.60;;;;;;5014917;28;20446;-63
2022/11/22 01:13:43;;;;;;;4.60;4.50;;;21.20;57.60;;;;;;5014682;28;20924;-63
2022/11/22 01:16:12;;;;;;;3.63;3.53;;;21.30;57.60;;;;;;5014995;28;20950;-62
2022/11/22 01:18:39;;;;;;;3.80;3.70;;;21.20;57.50;;;;;;5014937;28;20450;-63
2022/11/22 01:21:06;;;;;;;3.60;3.50;;;21.30;58.00;;;;;;5013597;28;20456;-63
2022/11/22 01:23:33;;;;;;;3.90;3.80;;;21.20;57.60;;;;;;5013745;28;20470;-62
2022/11/22 01:26:00;;;;;;;3.90;3.80;;;21.20;57.60;;;;;;5014779;28;20526;-64
2022/11/22 01:28:27;;;;;;;3.73;3.63;;;21.30;57.60;;;;;;5015850;28;20460;-63
2022/11/22 01:30:55;;;;;;;4.07;3.87;;;21.20;57.50;;;;;;5015869;28;20539;-63
2022/11/22 01:33:22;;;;;;;4.20;4.10;;;21.30;57.60;;;;;;5015203;28;20486;-64
2022/11/22 01:35:49;;;;;;;4.03;3.93;;;21.30;57.70;;;;;;5016486;28;20556;-64
2022/11/22 01:38:16;;;;;;;3.93;3.83;;;21.20;57.60;;;;;;5015245;28;20452;-64
2022/11/22 01:40:43;;;;;;;4.10;3.90;;;21.30;57.70;;;;;;5016656;28;20457;-63
2022/11/22 01:43:16;;;;;;;4.50;4.40;;;21.20;57.70;;;;;;5016462;28;20527;-63
2022/11/22 01:45:51;;;;;;;3.53;3.43;;;21.20;57.80;;;;;;5016262;28;20999;-63
2022/11/22 01:48:25;;;;;;;3.73;3.63;;;21.20;57.90;;;;;;5015730;28;20540;-63
2022/11/22 01:50:56;;;;;;;4.13;4.03;;;21.20;57.90;;;;;;5015128;28;20529;-63
2022/11/22 01:53:28;;;;;;;3.93;3.83;;;21.20;57.90;;;;;;5013423;28;20596;-63
2022/11/22 01:55:57;;;;;;;3.97;3.87;;;21.20;58.00;;;;;;5013066;28;20540;-63
2022/11/22 01:58:26;;;;;;;4.10;4.00;;;21.20;58.00;;;;;;5013429;28;20496;-63
2022/11/22 02:00:54;;;;;;;3.90;3.80;;;21.20;57.90;;;;;;5013783;28;20438;-63
2022/11/22 02:03:23;;;;;;;3.57;3.57;;;21.30;58.00;;;;;;5012958;28;21032;-63
2022/11/22 02:05:51;;;;;;;3.30;3.30;;;21.20;58.00;;;;;;5012850;28;20484;-62
2022/11/22 02:08:22;;;;;;;4.33;4.23;;;21.20;58.50;;;;;;5013075;28;21144;-63
2022/11/22 02:10:52;;;;;;;3.63;3.53;;;21.20;58.00;;;;;;5012952;28;20454;-64
2022/11/22 02:13:22;;;;;;;3.43;3.37;;;21.20;58.00;;;;;;5013067;28;20917;-63
2022/11/22 02:15:50;;;;;;;3.77;3.67;;;21.20;58.00;;;;;;5013723;28;20477;-63
2022/11/22 02:18:17;;;;;;;3.63;3.60;;;21.20;58.00;;;;;;5013406;28;20536;-63
2022/11/22 02:20:46;;;;;;;4.23;4.13;;;21.20;58.00;;;;;;5012543;28;20546;-63
2022/11/22 02:23:23;;;;;;;3.93;3.83;;;21.20;58.00;;;;;;5012424;28;20485;-63
2022/11/22 02:25:54;;;;;;;3.50;3.40;;;21.20;58.00;;;;;;5012708;28;21040;-64
2022/11/22 02:28:21;;;;;;;2.97;2.90;;;21.20;57.90;;;;;;5013528;28;20533;-63
2022/11/22 02:30:48;;;;;;;3.50;3.40;;;21.20;58.00;;;;;;5013036;28;20473;-63
2022/11/22 02:33:15;;;;;;;3.70;3.60;;;21.20;58.00;;;;;;5012740;28;20566;-62
2022/11/22 02:35:42;;;;;;;3.20;3.20;;;21.20;58.00;;;;;;5013136;28;20501;-63
2022/11/22 02:38:11;;;;;;;3.50;3.50;;;21.20;58.00;;;;;;5014834;28;20931;-63
2022/11/22 02:40:42;;;;;;;3.93;3.83;;;21.20;58.10;;;;;;5013985;28;20434;-64
2022/11/22 02:43:15;;;;;;;3.60;3.50;;;21.20;58.20;;;;;;5012790;28;20466;-63
2022/11/22 02:45:42;;;;;;;3.30;3.27;;;21.20;58.20;;;;;;5012998;28;20565;-63
2022/11/22 02:48:10;;;;;;;3.13;3.07;;;21.20;58.20;;;;;;5012836;28;20913;-61
2022/11/22 02:50:37;;;;;;;3.80;3.70;;;21.20;58.30;;;;;;5012838;28;20477;-63
2022/11/22 02:53:05;;;;;;;3.27;3.17;;;21.20;58.30;;;;;;5012515;28;20482;-63
2022/11/22 02:55:32;;;;;;;3.63;3.53;;;21.20;58.30;;;;;;5012347;28;20505;-63
2022/11/22 02:57:59;;;;;;;3.77;3.67;;;21.20;58.80;;;;;;5013162;28;20888;-63
2022/11/22 03:00:27;;;;;;;3.13;3.13;;;21.20;58.30;;;;;;5013480;28;20544;-62
2022/11/22 03:02:54;;;;;;;3.67;3.57;;;21.20;58.30;;;;;;5012323;28;20817;-62
2022/11/22 03:05:21;;;;;;;3.57;3.43;;;21.20;58.30;;;;;;5011916;28;20566;-63
2022/11/22 03:07:47;;;;;;;3.40;3.30;;;21.20;58.30;;;;;;5012520;28;20441;-62
2022/11/22 03:10:14;;;;;;;3.30;3.30;;;21.20;58.30;;;;;;5011860;28;20486;-63
2022/11/22 03:12:41;;;;;;;3.50;3.40;;;21.20;58.30;;;;;;5011972;28;20517;-63
2022/11/22 03:15:09;;;;;;;3.13;3.13;;;21.20;58.30;;;;;;5012307;28;20450;-63
2022/11/22 03:17:37;;;;;;;3.30;3.20;;;21.20;58.30;;;;;;5012670;28;20536;-63
2022/11/22 03:20:04;;;;;;;3.63;3.53;;;21.20;58.80;;;;;;5011910;28;20481;-62
2022/11/22 03:22:31;;;;;;;3.80;3.70;;;21.20;58.20;;;;;;5011844;28;20438;-63
2022/11/22 03:24:58;;;;;;;3.60;3.60;;;21.20;58.20;;;;;;5011757;28;20983;-63
2022/11/22 03:27:25;;;;;;;3.30;3.20;;;21.20;58.20;;;;;;5012628;28;20445;-63
2022/11/22 03:29:52;;;;;;;3.47;3.47;;;21.20;58.20;;;;;;5013066;28;20545;-63
2022/11/22 03:32:18;;;;;;;4.20;4.10;;;21.20;58.40;;;;;;5012399;28;20456;-63
2022/11/22 03:34:47;;;;;;;3.87;3.77;;;21.20;58.90;;;;;;5013084;28;20517;-64
2022/11/22 03:37:13;;;;;;;3.60;3.50;;;21.20;58.40;;;;;;5013435;28;20458;-64
2022/11/22 03:39:40;;;;;;;3.00;3.00;;;21.20;58.30;;;;;;5014297;28;20441;-63
2022/11/22 03:42:07;;;;;;;4.47;4.27;;;21.20;58.40;;;;;;5012886;28;20539;-63
2022/11/22 03:44:34;;;;;;;3.90;3.80;;;21.20;58.50;;;;;;5012183;28;20452;-64
2022/11/22 03:47:01;;;;;;;3.90;3.80;;;21.20;58.50;;;;;;5011520;28;20458;-63
2022/11/22 03:49:28;;;;;;;4.07;3.97;;;21.20;58.50;;;;;;4992612;28;20527;-62
2022/11/22 03:51:56;;;;;;;3.93;3.73;;;21.20;58.60;;;;;;4992004;28;20439;-63
2022/11/22 03:54:23;;;;;;;3.50;3.50;;;21.20;58.60;;;;;;4991807;28;20479;-64
2022/11/22 03:56:49;;;;;;;3.70;3.60;;;21.20;58.60;;;;;;4993163;28;20886;-63
2022/11/22 03:59:16;;;;;;;3.60;3.60;;;21.20;58.60;;;;;;5011483;28;20446;-63
2022/11/22 04:01:43;;;;;;;4.07;3.97;;;21.20;58.60;;;;;;5013651;28;20546;-63
2022/11/22 04:04:11;;;;;;;3.60;3.53;;;21.20;58.60;;;;;;5015601;28;20434;-63
2022/11/22 04:06:38;;;;;;;3.67;3.67;;;21.20;58.70;;;;;;5015181;28;20565;-63
2022/11/22 04:09:07;;;;;;;3.77;3.70;;;21.20;58.90;;;;;;5015236;28;20457;-63
2022/11/22 04:11:33;;;;;;;3.47;3.37;;;21.20;58.80;;;;;;5014703;28;20983;-62
2022/11/22 04:16:44;;;;;;;3.60;3.60;;;21.30;58.80;;;;;;5016439;28;20988;-64
2022/11/22 04:19:11;;;;;;;4.00;3.90;;;21.30;58.80;;;;;;5014844;28;20442;-63
2022/11/22 04:21:37;;;;;;;4.47;4.37;;;21.20;58.60;;;;;;5014241;28;20487;-63
2022/11/22 04:26:51;;;;;;;3.77;3.67;;;21.10;59.70;;;;;;5014260;28;20396;-62
2022/11/22 04:29:19;;;;;;;3.97;3.80;;;21.00;59.90;;;;;;5014553;28;20553;-62
2022/11/22 04:34:30;;;;;;;4.20;4.00;;;20.90;60.10;;;;;;5014027;28;20589;-63
2022/11/22 04:36:57;;;;;;;3.97;3.93;;;20.90;60.30;;;;;;5014207;28;20514;-63
2022/11/22 04:39:25;;;;;;;4.70;4.50;;;20.90;60.50;;;;;;5014135;28;20863;-63
2022/11/22 04:44:39;;;;;;;3.97;3.87;;;20.90;60.60;;;;;;5014045;28;20544;-63
2022/11/22 04:44:41;;;;;;;4.53;4.43;;;20.90;60.70;;;;;;5013779;28;20438;-63
2022/11/22 04:47:09;;;;;;;4.23;3.83;;;20.80;60.70;;;;;;5013960;28;20548;-63
2022/11/22 04:49:35;;;;;;;3.53;3.53;;;20.80;60.90;;;;;;5014004;28;20877;-63
2022/11/22 04:54:49;;;;;;;4.37;4.17;;;20.80;61.00;;;;;;5013614;28;20492;-63
2022/11/22 04:57:16;;;;;;;3.67;3.60;;;20.80;61.00;;;;;;5013729;28;20589;-63
2022/11/22 04:59:43;;;;;;;3.93;3.83;;;20.80;61.00;;;;;;5013751;28;20871;-62
2022/11/22 05:02:10;;;;;;;4.47;4.37;;;20.80;61.00;;;;;;5013631;28;20533;-63
2022/11/22 05:04:36;;;;;;;4.10;4.00;;;20.80;61.10;;;;;;5013380;28;20539;-63
2022/11/22 05:07:03;;;;;;;4.30;4.20;;;20.80;61.90;;;;;;5013474;28;20477;-62
2022/11/22 05:09:30;;;;;;;4.73;4.53;;;20.80;61.20;;;;;;5013546;28;20794;-64
2022/11/22 05:11:58;;;;;;;4.40;4.23;;;20.80;61.20;;;;;;5012788;28;20452;-63
2022/11/22 05:14:25;;;;;;;4.00;3.90;;;20.80;61.20;;;;;;5013530;28;20482;-64
2022/11/22 05:16:52;;;;;;;4.10;4.03;;;20.80;61.20;;;;;;5013356;28;20884;-64
2022/11/22 05:19:19;;;;;;;4.03;3.90;;;20.80;61.10;;;;;;5013517;28;20450;-64
2022/11/22 05:21:45;;;;;;;3.87;3.67;;;20.80;61.20;;;;;;5012845;28;20603;-62
2022/11/22 05:24:11;;;;;;;4.00;3.90;;;20.70;61.00;;;;;;5013266;28;20437;-64
2022/11/22 05:26:38;;;;;;;5.10;4.80;;;20.80;61.00;;;;;;5013092;28;20473;-65
2022/11/22 05:29:09;;;;;;;7.03;6.40;;;20.90;67.10;;;;;;5013311;28;20257;-65
2022/11/22 05:31:37;;;;;;;6.80;6.30;;;21.10;71.00;;;;;;5013851;28;20876;-65
2022/11/22 05:34:05;;;;;;;11.33;6.83;;;21.20;70.20;;;;;;5014978;28;20482;-62
2022/11/22 05:36:33;;;;;;;8.27;7.10;;;21.30;67.70;;;;;;5019589;28;21056;-64
2022/11/22 05:39:01;;;;;;;6.60;5.97;;;21.40;66.10;;;;;;5017307;28;20525;-65
2022/11/22 05:41:28;;;;;;;6.13;5.70;;;21.50;65.70;;;;;;5018172;28;20481;-64
2022/11/22 05:43:56;;;;;;;6.93;6.43;;;21.50;64.10;;;;;;5015214;28;20497;-63
2022/11/22 05:46:26;;;;;;;6.23;5.87;;;21.50;64.00;;;;;;5012981;28;20860;-63
2022/11/22 05:48:54;;;;;;;5.30;5.10;;;21.60;63.70;;;;;;5011766;28;20442;-63
2022/11/22 05:51:24;;;;;;;5.70;5.50;;;21.70;63.10;;;;;;5012891;28;20481;-63
2022/11/22 05:53:51;;;;;;;6.57;6.37;;;21.80;62.50;;;;;;5012903;28;20482;-63
2022/11/22 05:56:20;;;;;;;6.60;6.30;;;21.80;61.80;;;;;;5013177;28;20545;-63
2022/11/22 05:58:47;;;;;;;7.70;7.00;;;21.90;61.20;;;;;;5012956;28;20561;-64
2022/11/22 06:01:15;;;;;;;6.47;6.17;;;21.90;60.70;;;;;;5012757;28;20889;-63
2022/11/22 06:03:44;;;;;;;6.67;6.37;;;21.90;60.30;;;;;;5013034;28;20447;-64
2022/11/22 06:06:11;;;;;;;6.27;5.90;;;22.00;60.90;;;;;;5013791;28;20474;-63
2022/11/22 06:08:40;;;;;;;6.80;6.30;;;21.90;59.80;;;;;;5013914;28;20481;-63
2022/11/22 06:11:09;;;;;;;6.03;5.77;;;22.00;59.70;;;;;;5013229;28;20446;-63
2022/11/22 06:13:37;;;;;;;6.57;6.17;;;22.00;60.20;;;;;;5012741;28;20576;-63
2022/11/22 06:16:04;;;;;;;5.90;5.63;;;22.00;59.50;;;;;;5012447;28;20465;-63
2022/11/22 06:18:31;;;;;;;6.23;5.83;;;21.90;59.30;;;;;;5012596;28;20452;-63
2022/11/22 06:21:01;;;;;;;7.10;5.67;;;21.90;59.30;;;;;;5012310;28;20452;-64
2022/11/22 06:23:28;;;;;;;5.73;5.53;;;21.90;59.20;;;;;;5011936;28;20441;-64
2022/11/22 06:25:59;;;;;;;6.13;5.30;;;21.90;59.10;;;;;;5012346;28;20493;-63
2022/11/22 06:28:26;;;;;;;6.13;5.73;;;21.90;59.10;;;;;;5012211;28;20473;-64
2022/11/22 06:30:53;;;;;;;6.17;5.87;;;21.90;59.00;;;;;;5012341;28;20438;-63
2022/11/22 06:33:20;;;;;;;5.93;5.63;;;21.90;59.00;;;;;;5011972;28;20472;-63
2022/11/22 06:35:47;;;;;;;6.03;5.83;;;21.90;59.00;;;;;;5012123;28;21076;-63
2022/11/22 06:38:15;;;;;;;6.07;5.77;;;21.90;58.90;;;;;;5012325;28;20450;-64
2022/11/22 06:40:42;;;;;;;6.20;6.00;;;21.90;58.90;;;;;;5012221;28;20445;-64
2022/11/22 06:43:09;;;;;;;6.67;6.10;;;21.90;58.90;;;;;;5011864;28;20933;-63
2022/11/22 06:45:36;;;;;;;6.30;6.00;;;21.80;58.70;;;;;;5012021;28;20472;-63
2022/11/22 06:48:03;;;;;;;6.17;5.97;;;21.80;58.70;;;;;;5012095;28;20450;-64
2022/11/22 06:50:29;;;;;;;6.77;6.47;;;21.80;58.60;;;;;;5012077;28;20536;-65
2022/11/22 06:52:56;;;;;;;6.00;5.77;;;21.80;58.50;;;;;;5011998;28;20877;-63
2022/11/22 06:55:26;;;;;;;7.83;5.90;;;21.80;58.50;;;;;;5011842;28;20494;-63
2022/11/22 06:57:52;;;;;;;6.50;6.20;;;21.80;58.40;;;;;;5011943;28;20452;-63
2022/11/22 07:00:19;;;;;;;5.93;5.63;;;21.70;58.30;;;;;;5011805;28;20886;-64
2022/11/22 07:02:46;;;;;;;6.77;6.47;;;21.70;58.30;;;;;;5011812;28;20827;-64
2022/11/22 07:05:16;;;;;;;6.83;6.43;;;21.70;58.30;;;;;;5011874;28;20472;-62
2022/11/22 07:07:43;;;;;;;6.40;6.20;;;21.70;58.30;;;;;;5011850;28;20517;-62
2022/11/22 07:10:10;;;;;;;5.93;5.73;;;21.70;58.20;;;;;;5011720;28;20442;-63
2022/11/22 07:12:38;;;;;;;6.70;6.30;;;21.60;58.20;;;;;;5011628;28;20446;-63
2022/11/22 07:15:06;;;;;;;6.17;5.97;;;21.60;58.20;;;;;;5011496;28;20504;-63
2022/11/22 07:17:32;;;;;;;6.53;6.23;;;21.60;58.20;;;;;;5011612;28;20478;-62
2022/11/22 07:19:59;;;;;;;6.93;6.73;;;21.50;58.20;;;;;;5011548;28;20444;-63
2022/11/22 07:22:27;;;;;;;7.30;6.80;;;21.50;58.20;;;;;;5011409;28;20888;-63
2022/11/22 07:24:54;;;;;;;6.30;5.90;;;21.50;58.10;;;;;;5011651;28;20442;-63
2022/11/22 07:27:21;;;;;;;6.80;6.50;;;21.50;58.20;;;;;;5011723;28;20442;-64
2022/11/22 07:29:49;;;;;;;6.20;6.00;;;21.50;58.10;;;;;;5011447;28;20452;-63
2022/11/22 07:32:16;;;;;;;6.60;6.37;;;21.50;58.20;;;;;;5011466;28;20450;-63
2022/11/22 07:34:42;;;;;;;7.30;6.93;;;21.40;58.20;;;;;;5011929;28;20861;-63
2022/11/22 07:37:09;;;;;;;6.47;6.17;;;21.40;58.10;;;;;;5015315;28;20537;-63
2022/11/22 07:39:36;;;;;;;6.40;6.20;;;21.40;58.20;;;;;;5015339;28;20495;-62
2022/11/22 07:42:03;;;;;;;7.47;7.10;;;21.40;58.20;;;;;;5014864;28;20540;-62
2022/11/22 07:44:30;;;;;;;6.40;5.90;;;21.30;58.10;;;;;;5015152;28;21012;-62
2022/11/22 07:46:58;;;;;;;6.30;6.10;;;21.30;58.10;;;;;;5015041;28;20461;-62
2022/11/22 07:49:25;;;;;;;6.83;6.50;;;21.30;58.10;;;;;;5015131;28;20451;-62
2022/11/22 07:51:52;;;;;;;6.50;6.20;;;21.20;58.10;;;;;;5014794;28;20445;-63
2022/11/22 07:54:19;;;;;;;6.80;6.50;;;21.20;58.10;;;;;;5014818;28;20482;-63
2022/11/22 07:56:45;;;;;;;6.40;6.17;;;21.20;58.10;;;;;;5014967;28;20468;-63
2022/11/22 07:59:12;;;;;;;6.33;6.13;;;21.20;58.10;;;;;;5014905;28;20953;-63
2022/11/22 08:01:39;;;;;;;6.23;6.13;;;21.20;58.10;;;;;;5014715;28;20444;-63
2022/11/22 08:04:08;;;;;;;5.77;5.60;;;21.30;58.20;;;;;;5014832;28;21001;-63
2022/11/22 08:06:35;;;;;;;6.57;6.37;;;21.30;58.10;;;;;;5014655;28;20555;-62
2022/11/22 08:09:02;;;;;;;6.17;5.97;;;21.30;58.10;;;;;;5014632;28;20442;-62
2022/11/22 08:11:28;;;;;;;6.77;6.47;;;21.30;58.10;;;;;;5014613;28;20453;-63
2022/11/22 08:13:55;;;;;;;6.67;6.47;;;21.30;58.10;;;;;;5014484;28;21023;-64
2022/11/22 08:16:22;;;;;;;6.97;6.77;;;21.30;58.10;;;;;;5014613;28;20468;-63
2022/11/22 08:18:50;;;;;;;6.20;6.00;;;21.40;58.10;;;;;;5014582;28;20534;-63
2022/11/22 08:21:19;;;;;;;6.53;6.33;;;21.40;58.10;;;;;;5014361;28;20532;-63
2022/11/22 08:23:47;;;;;;;6.43;6.27;;;21.40;58.10;;;;;;5014445;28;20542;-63
2022/11/22 08:26:16;;;;;;;6.50;6.20;;;21.30;57.90;;;;;;5014364;28;20468;-63
2022/11/22 08:28:43;;;;;;;6.60;6.50;;;21.40;58.00;;;;;;5014474;28;20456;-63
2022/11/22 08:31:12;;;;;;;6.40;6.20;;;21.40;57.90;;;;;;5014186;28;20481;-63
2022/11/22 08:33:39;;;;;;;6.93;6.40;;;21.40;57.80;;;;;;5014317;28;20477;-63
2022/11/22 08:36:07;;;;;;;6.70;6.50;;;21.40;57.80;;;;;;5014074;28;20570;-63
2022/11/22 08:38:35;;;;;;;5.87;5.77;;;21.40;57.70;;;;;;5014115;28;20533;-63
2022/11/22 08:41:02;;;;;;;7.67;7.37;;;21.40;57.70;;;;;;5013868;28;20485;-63
2022/11/22 08:43:29;;;;;;;6.73;6.53;;;21.40;57.60;;;;;;5014043;28;20453;-63
2022/11/22 08:45:58;;;;;;;6.40;5.93;;;21.40;57.60;;;;;;5013944;28;20486;-63
2022/11/22 08:48:25;;;;;;;6.10;6.00;;;21.30;57.50;;;;;;5013498;28;20482;-63
2022/11/22 08:50:53;;;;;;;7.10;6.90;;;21.30;57.40;;;;;;5013983;28;20445;-62
2022/11/22 08:53:20;;;;;;;6.50;6.40;;;21.30;57.40;;;;;;5013775;28;20449;-63
2022/11/22 08:55:48;;;;;;;6.50;6.30;;;21.30;57.30;;;;;;5013809;28;20856;-63
2022/11/22 08:58:15;;;;;;;6.90;6.70;;;21.30;57.30;;;;;;5013784;28;20441;-63
2022/11/22 09:00:42;;;;;;;6.90;6.70;;;21.30;57.30;;;;;;5013812;28;20670;-64
2022/11/22 09:03:09;;;;;;;6.90;6.70;;;21.30;57.30;;;;;;5013537;28;20445;-63
2022/11/22 09:05:36;;;;;;;5.97;5.87;;;21.30;57.30;;;;;;5013533;28;20481;-64
2022/11/22 09:08:03;;;;;;;6.20;6.10;;;21.20;57.20;;;;;;5013637;28;20474;-63
2022/11/22 09:10:30;;;;;;;6.70;6.50;;;21.20;57.20;;;;;;5013512;28;20442;-63
2022/11/22 09:12:58;;;;;;;6.60;6.40;;;21.20;57.20;;;;;;5013508;28;20441;-63
2022/11/22 09:15:25;;;;;;;6.17;6.07;;;21.20;57.20;;;;;;5014131;28;20496;-63
2022/11/22 09:17:52;;;;;;;7.00;6.80;;;21.20;57.20;;;;;;5013583;28;20484;-63
2022/11/22 09:20:19;;;;;;;6.60;6.40;;;21.10;57.20;;;;;;5013359;28;20452;-64
2022/11/22 09:22:46;;;;;;;6.20;6.03;;;21.10;57.20;;;;;;5013213;28;21017;-64
2022/11/22 09:25:12;;;;;;;6.50;6.30;;;21.10;57.10;;;;;;5013626;28;20448;-63
2022/11/22 09:27:39;;;;;;;6.90;6.70;;;21.10;57.70;;;;;;5013293;28;20869;-63
2022/11/22 09:30:09;;;;;;;6.50;6.30;;;21.10;57.20;;;;;;5013228;28;20526;-63
2022/11/22 09:32:35;;;;;;;6.07;5.97;;;21.10;57.30;;;;;;5012951;28;20949;-63
2022/11/22 09:35:02;;;;;;;5.70;5.60;;;21.00;57.20;;;;;;5012876;28;20505;-63
2022/11/22 09:37:31;;;;;;;6.20;6.00;;;21.00;57.20;;;;;;5012985;28;20934;-63
2022/11/22 09:39:58;;;;;;;6.00;5.90;;;21.00;57.30;;;;;;5013060;28;20528;-63
2022/11/22 09:42:35;;;;;;;6.20;6.00;;;21.00;57.30;;;;;;5012714;28;20493;-63
2022/11/22 09:45:25;;;;;;;6.90;6.53;;;21.00;57.30;;;;;;5013029;28;20863;-63
2022/11/22 09:48:01;;;;;;;7.20;6.93;;;21.00;57.30;;;;;;5012943;28;20470;-63
2022/11/22 09:50:36;;;;;;;6.40;6.30;;;21.00;57.40;;;;;;5013629;28;20528;-63
2022/11/22 09:53:08;;;;;;;6.50;6.30;;;21.00;57.30;;;;;;5012604;28;20453;-63
2022/11/22 09:55:39;;;;;;;7.23;7.03;;;21.00;57.30;;;;;;5012620;28;20561;-63
2022/11/22 09:58:11;;;;;;;6.30;6.20;;;21.00;57.30;;;;;;5012133;28;20470;-62
2022/11/22 10:00:42;;;;;;;6.00;5.80;;;21.10;57.30;;;;;;5012517;28;20454;-63
2022/11/22 10:03:18;;;;;;;6.30;6.10;;;21.10;57.30;;;;;;5012440;28;20453;-63
2022/11/22 10:05:50;;;;;;;6.97;6.50;;;21.10;57.30;;;;;;5012411;28;20552;-63
2022/11/22 10:08:26;;;;;;;8.13;7.63;;;21.10;57.30;;;;;;5012551;28;20981;-63
2022/11/22 10:10:56;;;;;;;6.43;6.33;;;21.10;57.20;;;;;;5012539;28;20446;-63
2022/11/22 10:13:29;;;;;;;7.03;6.83;;;21.20;57.30;;;;;;5012444;28;20485;-63
2022/11/22 10:16:02;;;;;;;6.87;6.57;;;21.20;57.20;;;;;;5012347;28;20590;-63
2022/11/22 10:18:37;;;;;;;6.73;6.53;;;21.20;57.20;;;;;;5012390;28;20489;-63
2022/11/22 10:21:04;;;;;;;6.90;6.53;;;21.20;57.10;;;;;;5011965;28;21020;-63
2022/11/22 10:23:32;;;;;;;6.03;5.83;;;21.20;57.10;;;;;;5012223;28;20504;-63
2022/11/22 10:26:03;;;;;;;6.53;6.33;;;21.20;57.10;;;;;;5012107;28;20861;-62
2022/11/22 10:28:35;;;;;;;6.50;6.30;;;21.20;57.00;;;;;;5012731;28;20450;-63
2022/11/22 10:31:09;;;;;;;6.23;6.10;;;21.20;57.00;;;;;;5011901;28;20488;-63
2022/11/22 10:33:42;;;;;;;6.50;6.30;;;21.20;56.90;;;;;;5012080;28;20472;-63
2022/11/22 10:36:23;;;;;;;6.60;6.50;;;21.20;56.80;;;;;;5011941;28;20812;-62
2022/11/22 10:39:09;;;;;;;6.27;6.17;;;21.20;56.80;;;;;;5012003;28;20449;-63
2022/11/22 10:41:50;;;;;;;6.17;5.97;;;21.20;56.80;;;;;;5011948;28;20484;-63
2022/11/22 10:44:32;;;;;;;6.10;5.90;;;21.20;56.70;;;;;;5011993;28;20492;-63
2022/11/22 10:47:06;;;;;;;6.73;6.53;;;21.10;56.70;;;;;;5011983;28;20548;-63
2022/11/22 10:49:49;;;;;;;6.43;6.23;;;21.10;57.20;;;;;;5012094;28;20536;-62
2022/11/22 10:52:23;;;;;;;6.33;6.17;;;21.10;56.70;;;;;;5011913;28;20817;-61
2022/11/22 10:54:58;;;;;;;6.60;6.20;;;21.10;56.70;;;;;;5012055;28;20485;-62
2022/11/22 10:57:33;;;;;;;5.83;5.70;;;21.10;56.70;;;;;;5011938;28;21027;-63
2022/11/22 11:00:18;;;;;;;6.70;6.50;;;21.10;56.70;;;;;;5011859;28;20445;-62
2022/11/22 11:03:08;;;;;;;6.53;6.43;;;21.00;56.60;;;;;;5011633;28;20537;-62
2022/11/22 11:05:43;;;;;;;5.90;5.80;;;21.10;56.70;;;;;;5011584;28;21010;-61
2022/11/22 11:08:13;;;;;;;6.57;6.47;;;21.00;56.60;;;;;;5011971;28;20543;-61
2022/11/22 11:10:41;;;;;;;6.20;6.10;;;21.00;56.60;;;;;;5013964;28;20830;-62
2022/11/22 11:13:17;;;;;;;6.83;6.63;;;21.00;56.70;;;;;;5015599;28;20453;-62
2022/11/22 11:15:48;;;;;;;6.67;6.57;;;21.00;56.60;;;;;;5015465;28;20961;-62
2022/11/22 11:18:21;;;;;;;6.33;6.23;;;21.00;56.70;;;;;;5015736;28;20454;-62
2022/11/22 11:20:48;;;;;;;5.70;5.60;;;21.00;56.70;;;;;;5015749;28;20488;-62
2022/11/22 11:23:15;;;;;;;5.80;5.70;;;20.90;56.60;;;;;;5015433;28;20520;-61
2022/11/22 11:25:43;;;;;;;6.60;6.50;;;20.90;56.60;;;;;;5015431;28;21082;-62
2022/11/22 11:28:16;;;;;;;6.30;6.10;;;20.90;56.60;;;;;;5015602;28;20974;-62
2022/11/22 11:30:46;;;;;;;6.63;6.50;;;20.90;56.70;;;;;;5015435;28;20536;-62
2022/11/22 11:33:27;;;;;;;6.50;6.30;;;20.90;56.70;;;;;;5015268;28;20484;-62
2022/11/22 11:35:56;;;;;;;6.47;6.27;;;20.90;56.70;;;;;;5015269;28;20490;-63
2022/11/22 11:38:32;;;;;;;6.43;6.23;;;21.00;56.80;;;;;;5015295;28;20540;-63
2022/11/22 11:41:15;;;;;;;6.03;5.90;;;21.00;56.80;;;;;;5015125;28;20991;-63
2022/11/22 11:43:42;;;;;;;5.70;5.60;;;21.00;56.80;;;;;;5015183;28;20533;-63
2022/11/22 11:46:17;;;;;;;6.17;5.97;;;21.00;56.80;;;;;;5015189;28;20557;-63
2022/11/22 11:48:45;;;;;;;6.23;6.13;;;21.00;56.80;;;;;;5015144;28;20971;-63
2022/11/22 11:51:17;;;;;;;6.00;5.90;;;21.10;56.80;;;;;;5014832;28;20450;-63
2022/11/22 11:53:56;;;;;;;6.30;6.17;;;21.10;56.80;;;;;;5015058;28;20542;-63
2022/11/22 11:56:37;;;;;;;7.47;7.23;;;21.10;57.30;;;;;;5014896;28;20485;-63
2022/11/22 11:59:11;;;;;;;7.23;6.93;;;21.10;56.70;;;;;;5015055;28;20446;-63
2022/11/22 12:01:50;;;;;;;6.20;6.10;;;21.10;56.70;;;;;;5014783;28;20885;-63
2022/11/22 12:04:22;;;;;;;7.27;7.07;;;21.10;56.60;;;;;;5014929;28;20827;-63
2022/11/22 12:07:04;;;;;;;5.80;5.70;;;21.10;56.60;;;;;;5014808;28;20911;-63
2022/11/22 12:09:34;;;;;;;6.30;6.10;;;21.10;56.50;;;;;;5014803;28;20481;-63
2022/11/22 12:12:08;;;;;;;5.97;5.83;;;21.10;56.50;;;;;;5014513;28;20449;-63
2022/11/22 12:14:39;;;;;;;6.70;6.50;;;21.10;56.40;;;;;;5014665;28;20484;-63
2022/11/22 12:17:13;;;;;;;6.50;6.40;;;21.10;56.40;;;;;;5014490;28;20500;-62
2022/11/22 12:19:50;;;;;;;6.47;6.37;;;21.10;56.40;;;;;;5014545;28;20485;-63
2022/11/22 12:22:24;;;;;;;5.90;5.80;;;21.10;56.40;;;;;;5013235;28;20481;-63
2022/11/22 12:24:54;;;;;;;6.77;6.57;;;21.10;56.90;;;;;;5014578;28;20521;-63
2022/11/22 12:27:21;;;;;;;6.60;6.47;;;21.10;56.30;;;;;;5014435;28;20481;-63
2022/11/22 12:29:48;;;;;;;5.93;5.83;;;21.10;56.30;;;;;;5014532;28;20448;-63
2022/11/22 12:32:19;;;;;;;6.10;5.90;;;21.10;56.30;;;;;;5014174;28;20493;-62
2022/11/22 12:34:53;;;;;;;6.30;6.10;;;21.10;56.20;;;;;;5014400;28;20824;-63
2022/11/22 12:37:23;;;;;;;6.67;6.57;;;21.10;56.10;;;;;;5014361;28;20596;-62
2022/11/22 12:39:54;;;;;;;6.47;6.37;;;21.10;56.10;;;;;;5014261;28;20485;-62
2022/11/22 12:42:29;;;;;;;6.53;6.40;;;21.10;56.10;;;;;;5013928;28;20457;-62
2022/11/22 12:45:01;;;;;;;6.80;6.60;;;21.10;56.10;;;;;;5014126;28;20469;-63
2022/11/22 12:47:32;;;;;;;6.03;5.93;;;21.10;56.10;;;;;;5014070;28;20481;-63
2022/11/22 12:50:08;;;;;;;6.07;5.87;;;21.00;56.00;;;;;;5014136;28;20482;-63
2022/11/22 12:52:40;;;;;;;6.03;5.93;;;21.00;56.10;;;;;;5013805;28;20793;-62
2022/11/22 12:55:15;;;;;;;5.77;5.67;;;21.00;56.10;;;;;;5013821;28;20519;-63
2022/11/22 12:57:50;;;;;;;6.10;5.90;;;21.00;56.10;;;;;;5015035;28;20536;-63
2022/11/22 13:00:20;;;;;;;6.40;6.20;;;21.00;56.10;;;;;;5013905;28;20448;-61
2022/11/22 13:02:59;;;;;;;6.07;5.87;;;20.90;56.10;;;;;;5013626;28;20449;-62
2022/11/22 13:05:30;;;;;;;6.40;6.20;;;20.90;56.20;;;;;;5040736;22;20981;-53
2022/11/22 13:08:08;;;;;;;5.90;5.80;;;20.90;56.20;;;;;;5013775;28;20925;-56